Terminal Aerodrome Forecast
Issued by NWS Key West, FL

Home | Current Version | Previous Version | Text Only | Print | Product List | Glossary On
Versions: 1 2 3 4 5 6 7 8 9 10 11 12 13 14 15 16 17 18 19 20 21 22 23 24 25 26 27 28 29 30 31 32 33 34 35 36 37 38 39 40 41 42 43 44 45 46 47 48 49 50
000
FTUS42 KKEY 192045 AAB
TAFEYW
TAF AMD
KEYW 192045Z 1921/2018 04012G19KT P6SM SCT014 BKN030 OVC070
     FM200000 04012G22KT P6SM -RA SCT008 BKN015 OVC025
      TEMPO 2001/2004 3SM SHRA BR BKN008 OVC015
     FM200400 03010KT P6SM -RA SCT010 BKN015 OVC050=

USA.gov is the U.S. government's official web portal to all federal, state and local government web resources and services.